createdAt,value
2018-12-26T00:00:27.922Z,3.40
2018-12-26T00:01:27.892Z,3.44
2018-12-26T00:02:27.896Z,3.44
2018-12-26T00:03:27.903Z,3.44
2018-12-26T00:04:27.859Z,3.47
2018-12-26T00:05:27.960Z,3.44
2018-12-26T00:06:27.850Z,3.41
2018-12-26T00:07:27.823Z,3.42
2018-12-26T00:08:27.807Z,3.40
2018-12-26T00:09:27.823Z,3.44
2018-12-26T00:10:27.800Z,3.45
2018-12-26T00:11:27.793Z,3.42
2018-12-26T00:12:27.769Z,3.40
2018-12-26T00:13:27.779Z,3.45
2018-12-26T00:14:27.766Z,3.47
2018-12-26T00:15:27.735Z,3.42
2018-12-26T00:16:27.738Z,3.44
2018-12-26T00:17:27.716Z,3.42
2018-12-26T00:18:27.794Z,3.40
2018-12-26T00:19:27.717Z,3.37
2018-12-26T00:20:27.703Z,3.41
2018-12-26T00:21:27.680Z,3.44
2018-12-26T00:22:27.662Z,3.41
2018-12-26T00:23:27.642Z,3.40
2018-12-26T00:24:27.667Z,3.42
2018-12-26T00:25:27.648Z,3.37
2018-12-26T00:26:27.622Z,3.44
2018-12-26T00:27:27.612Z,3.45
2018-12-26T00:28:27.586Z,3.47
2018-12-26T00:29:27.580Z,3.45
2018-12-26T00:30:27.570Z,3.42
2018-12-26T00:31:27.555Z,3.48
2018-12-26T00:32:27.543Z,3.44
2018-12-26T00:33:27.544Z,3.48
2018-12-26T00:34:27.561Z,3.44
2018-12-26T00:35:27.511Z,3.51
2018-12-26T00:36:27.497Z,3.50
2018-12-26T00:37:27.492Z,3.47
2018-12-26T00:38:27.479Z,3.45
2018-12-26T00:39:27.481Z,3.42
2018-12-26T00:40:27.456Z,3.32
2018-12-26T00:41:27.448Z,3.48
2018-12-26T00:42:27.433Z,3.47
2018-12-26T00:43:27.424Z,3.44
2018-12-26T00:44:27.442Z,3.45
2018-12-26T00:45:27.441Z,3.47
2018-12-26T00:46:27.387Z,3.37
2018-12-26T00:47:27.374Z,3.41
2018-12-26T00:48:27.358Z,3.45
2018-12-26T00:49:27.362Z,3.37
2018-12-26T00:50:27.351Z,3.41
2018-12-26T00:51:27.324Z,3.41
2018-12-26T00:52:27.315Z,3.41
2018-12-26T00:53:27.303Z,3.45
2018-12-26T00:54:27.299Z,3.40
2018-12-26T00:55:27.280Z,3.40
2018-12-26T00:56:27.288Z,3.41
2018-12-26T00:57:27.259Z,3.40
2018-12-26T00:58:27.250Z,3.40
2018-12-26T00:59:27.234Z,3.40
2018-12-26T01:00:27.243Z,3.37
2018-12-26T01:01:27.259Z,3.44
2018-12-26T01:02:27.214Z,3.40
2018-12-26T01:03:27.205Z,3.42
2018-12-26T01:04:27.181Z,3.45
2018-12-26T01:05:27.171Z,3.42
2018-12-26T01:06:27.169Z,3.41
2018-12-26T01:07:27.148Z,3.41
2018-12-26T01:08:27.148Z,3.44
2018-12-26T01:09:27.131Z,3.42
2018-12-26T01:10:27.115Z,3.40
2018-12-26T01:11:27.103Z,3.41
2018-12-26T01:12:27.120Z,3.45
2018-12-26T01:13:27.180Z,3.44
2018-12-26T01:14:27.069Z,3.45
2018-12-26T01:15:27.056Z,3.45
2018-12-26T01:16:27.049Z,3.40
2018-12-26T01:17:27.034Z,3.37
2018-12-26T01:18:27.049Z,3.44
2018-12-26T01:19:27.030Z,3.44
2018-12-26T01:20:27.007Z,3.44
2018-12-26T01:21:26.992Z,3.40
2018-12-26T01:22:26.980Z,3.40
2018-12-26T01:23:26.967Z,3.45
2018-12-26T01:24:26.965Z,3.44
2018-12-26T01:25:26.960Z,3.48
2018-12-26T01:26:26.936Z,3.41
2018-12-26T01:27:26.925Z,3.40
2018-12-26T01:28:26.913Z,3.44
2018-12-26T01:29:26.900Z,3.44
2018-12-26T01:30:26.907Z,3.44
2018-12-26T01:31:26.882Z,3.40
2018-12-26T01:32:26.866Z,3.41
2018-12-26T01:33:26.860Z,3.44
2018-12-26T01:34:26.844Z,3.42
2018-12-26T01:35:26.858Z,3.37
2018-12-26T01:36:26.830Z,3.47
2018-12-26T01:37:26.813Z,3.44
2018-12-26T01:38:26.802Z,3.44
2018-12-26T01:39:26.792Z,3.41
2018-12-26T01:40:26.780Z,3.48
2018-12-26T01:41:26.786Z,3.47
2018-12-26T01:42:26.758Z,3.47
2018-12-26T01:43:26.746Z,3.44
2018-12-26T01:44:26.732Z,3.44
2018-12-26T01:45:26.721Z,3.41
2018-12-26T01:46:26.710Z,3.29
2018-12-26T01:47:26.715Z,3.42
2018-12-26T01:48:26.700Z,3.47
2018-12-26T01:49:26.677Z,3.44
2018-12-26T01:50:26.669Z,3.48
2018-12-26T01:51:26.654Z,3.42
2018-12-26T01:52:26.645Z,3.44
2018-12-26T01:53:26.646Z,3.41
2018-12-26T01:54:26.623Z,3.41
2018-12-26T01:55:26.630Z,3.37
2018-12-26T01:56:28.087Z,3.29
2018-12-26T01:57:26.592Z,3.34
2018-12-26T01:58:26.600Z,3.28
2018-12-26T01:59:26.568Z,3.29
2018-12-26T02:00:26.557Z,3.29
2018-12-26T02:01:26.556Z,3.32
2018-12-26T02:02:26.534Z,3.32
2018-12-26T02:03:26.525Z,3.36
2018-12-26T02:04:26.534Z,3.29
2018-12-26T02:05:26.500Z,3.26
2018-12-26T02:06:26.487Z,3.32
2018-12-26T02:07:26.505Z,3.36
2018-12-26T02:08:26.469Z,3.37
2018-12-26T02:09:26.453Z,3.41
2018-12-26T02:10:26.454Z,3.34
2018-12-26T02:11:26.435Z,3.32
2018-12-26T02:12:26.421Z,3.40
2018-12-26T02:13:26.415Z,3.45
2018-12-26T02:14:26.505Z,3.28
2018-12-26T02:15:26.406Z,3.31
2018-12-26T02:16:26.378Z,3.26
2018-12-26T02:17:26.365Z,3.23
2018-12-26T02:18:26.354Z,3.40
2018-12-26T02:19:26.344Z,3.32
2018-12-26T02:20:26.343Z,3.28
2018-12-26T02:21:26.336Z,3.26
2018-12-26T02:22:26.308Z,3.31
2018-12-26T02:23:26.298Z,3.26
2018-12-26T02:24:26.294Z,3.31
2018-12-26T02:25:26.276Z,3.44
2018-12-26T02:26:26.272Z,3.47
2018-12-26T02:27:26.268Z,3.31
2018-12-26T02:28:26.261Z,3.26
2018-12-26T02:29:26.234Z,3.34
2018-12-26T02:30:26.230Z,3.26
2018-12-26T02:31:26.219Z,3.26
2018-12-26T02:32:26.214Z,3.29
2018-12-26T02:33:26.187Z,3.32
2018-12-26T02:34:26.188Z,3.29
2018-12-26T02:35:26.170Z,3.37
2018-12-26T02:36:26.154Z,3.36
2018-12-26T02:37:26.141Z,3.32
2018-12-26T02:38:26.157Z,3.28
2018-12-26T02:39:26.128Z,3.25
2018-12-26T02:40:26.115Z,3.37
2018-12-26T02:41:26.100Z,3.36
2018-12-26T02:42:26.087Z,3.32
2018-12-26T02:43:26.080Z,3.29
2018-12-26T02:44:26.083Z,3.32
2018-12-26T02:45:26.071Z,3.26
2018-12-26T02:46:26.042Z,3.29
2018-12-26T02:47:26.032Z,3.37
2018-12-26T02:48:26.018Z,3.28
2018-12-26T02:49:26.008Z,3.34
2018-12-26T02:50:26.004Z,3.32
2018-12-26T02:51:26.003Z,3.31
2018-12-26T02:52:25.976Z,3.29
2018-12-26T02:53:25.964Z,3.40
2018-12-26T02:54:25.952Z,3.29
2018-12-26T02:55:25.943Z,3.40
2018-12-26T02:56:25.937Z,3.40
2018-12-26T02:57:25.942Z,3.25
2018-12-26T02:58:25.908Z,3.25
2018-12-26T02:59:25.897Z,3.31
2018-12-26T03:00:25.888Z,3.41
2018-12-26T03:01:25.878Z,3.34
2018-12-26T03:02:25.889Z,3.26
2018-12-26T03:03:25.859Z,3.29
2018-12-26T03:04:25.842Z,3.32
2018-12-26T03:05:25.831Z,3.29
2018-12-26T03:06:25.821Z,3.29
2018-12-26T03:07:25.814Z,3.34
2018-12-26T03:08:25.838Z,3.34
2018-12-26T03:09:25.788Z,3.26
2018-12-26T03:10:25.773Z,3.34
2018-12-26T03:11:25.777Z,3.29
2018-12-26T03:12:25.751Z,3.28
2018-12-26T03:13:25.738Z,3.41
2018-12-26T03:14:25.872Z,3.41
2018-12-26T03:15:25.729Z,3.32
2018-12-26T03:16:25.706Z,3.28
2018-12-26T03:17:25.696Z,3.29
2018-12-26T03:18:25.692Z,3.44
2018-12-26T03:19:25.692Z,3.42
2018-12-26T03:20:25.663Z,3.34
2018-12-26T03:21:25.678Z,3.42
2018-12-26T03:22:25.657Z,3.41
2018-12-26T03:23:25.632Z,3.31
2018-12-26T03:24:25.616Z,3.40
2018-12-26T03:25:25.612Z,3.32
2018-12-26T03:26:25.596Z,3.41
2018-12-26T03:27:25.602Z,3.28
2018-12-26T03:28:25.577Z,3.22
2018-12-26T03:29:25.561Z,3.29
2018-12-26T03:30:25.551Z,3.34
2018-12-26T03:31:25.544Z,3.28
2018-12-26T03:32:25.533Z,3.32
2018-12-26T03:33:25.536Z,3.31
2018-12-26T03:34:25.519Z,3.32
2018-12-26T03:35:25.497Z,3.25
2018-12-26T03:36:25.484Z,3.26
2018-12-26T03:37:25.472Z,3.28
2018-12-26T03:38:25.462Z,3.40
2018-12-26T03:39:25.477Z,3.28
2018-12-26T03:40:25.545Z,3.31
2018-12-26T03:41:25.428Z,3.36
2018-12-26T03:42:25.417Z,3.31
2018-12-26T03:43:25.407Z,3.26
2018-12-26T03:44:25.396Z,3.23
2018-12-26T03:45:25.398Z,3.28
2018-12-26T03:46:25.383Z,3.22
2018-12-26T03:47:25.362Z,3.23
2018-12-26T03:48:25.355Z,3.25
2018-12-26T03:49:25.340Z,3.25
2018-12-26T03:50:25.352Z,3.26
2018-12-26T03:51:25.319Z,3.21
2018-12-26T03:52:25.391Z,3.16
2018-12-26T03:53:25.303Z,3.19
2018-12-26T03:54:25.283Z,3.22
2018-12-26T03:55:25.274Z,3.28
2018-12-26T03:56:25.284Z,3.32
2018-12-26T03:57:25.252Z,3.21
2018-12-26T03:58:25.246Z,3.26
2018-12-26T03:59:25.234Z,3.19
2018-12-26T04:00:25.218Z,3.21
2018-12-26T04:01:25.209Z,3.21
2018-12-26T04:02:25.218Z,3.08
2018-12-26T04:03:25.185Z,3.25
2018-12-26T04:05:25.291Z,3.13
2018-12-26T04:06:25.315Z,3.18
2018-12-26T04:07:25.266Z,3.14
2018-12-26T04:08:25.294Z,3.13
2018-12-26T04:09:25.281Z,3.14
2018-12-26T04:10:25.230Z,3.10
2018-12-26T04:11:25.215Z,3.19
2018-12-26T04:12:25.210Z,3.16
2018-12-26T04:13:25.196Z,3.07
2018-12-26T04:14:25.303Z,3.16
2018-12-26T04:15:25.177Z,3.13
2018-12-26T04:16:25.169Z,3.16
2018-12-26T04:17:25.146Z,3.13
2018-12-26T04:18:25.138Z,3.14
2018-12-26T04:19:25.126Z,3.08
2018-12-26T04:20:25.133Z,3.11
2018-12-26T04:21:25.108Z,3.11
2018-12-26T04:22:25.098Z,3.11
2018-12-26T04:23:25.081Z,3.05
2018-12-26T04:24:25.072Z,3.08
2018-12-26T04:25:25.059Z,3.05
2018-12-26T04:26:25.062Z,3.08
2018-12-26T04:27:25.036Z,3.05
2018-12-26T04:28:25.031Z,3.07
2018-12-26T04:29:25.020Z,3.05
2018-12-26T04:30:25.043Z,3.11
2018-12-26T04:31:25.020Z,3.11
2018-12-26T04:32:24.991Z,3.16
2018-12-26T04:33:24.969Z,3.04
2018-12-26T04:34:24.962Z,3.11
2018-12-26T04:35:24.947Z,3.04
2018-12-26T04:36:24.935Z,3.07
2018-12-26T04:37:24.935Z,3.23
2018-12-26T04:38:24.919Z,3.05
2018-12-26T04:39:24.929Z,3.11
2018-12-26T04:40:24.895Z,3.04
2018-12-26T04:41:24.879Z,3.07
2018-12-26T04:42:24.872Z,3.07
2018-12-26T04:43:24.857Z,3.04
2018-12-26T04:44:24.860Z,3.05
2018-12-26T04:45:24.848Z,3.05
2018-12-26T04:46:24.825Z,3.14
2018-12-26T04:47:24.821Z,3.04
2018-12-26T04:48:24.817Z,3.14
2018-12-26T04:49:24.798Z,3.04
2018-12-26T04:50:24.779Z,3.08
2018-12-26T04:51:24.796Z,3.08
2018-12-26T04:52:24.766Z,3.18
2018-12-26T04:53:24.744Z,3.11
2018-12-26T04:54:24.739Z,3.07
2018-12-26T04:55:24.743Z,3.14
2018-12-26T04:56:24.711Z,3.05
2018-12-26T04:57:25.234Z,3.11
2018-12-26T04:58:24.714Z,3.04
2018-12-26T04:59:24.685Z,3.14
2018-12-26T05:00:24.685Z,3.03
2018-12-26T05:01:24.657Z,3.08
2018-12-26T05:02:24.648Z,3.21
2018-12-26T05:03:24.641Z,3.13
2018-12-26T05:04:24.627Z,3.11
2018-12-26T05:05:24.616Z,3.05
2018-12-26T05:06:24.620Z,3.13
2018-12-26T05:07:24.676Z,3.10
2018-12-26T05:08:24.580Z,3.14
2018-12-26T05:09:24.577Z,3.08
2018-12-26T05:10:24.575Z,3.19
2018-12-26T05:11:24.549Z,3.07
2018-12-26T05:12:24.556Z,3.05
2018-12-26T05:13:24.539Z,3.16
2018-12-26T05:14:24.512Z,3.10
2018-12-26T05:15:24.504Z,3.14
2018-12-26T05:16:24.492Z,3.13
2018-12-26T05:17:24.500Z,3.08
2018-12-26T05:18:24.480Z,3.14
2018-12-26T05:19:24.455Z,3.16
2018-12-26T05:20:24.445Z,3.14
2018-12-26T05:21:24.436Z,3.14
2018-12-26T05:22:24.518Z,3.13
2018-12-26T05:23:24.453Z,3.18
2018-12-26T05:24:24.405Z,3.16
2018-12-26T05:25:24.391Z,3.14
2018-12-26T05:26:24.381Z,3.13
2018-12-26T05:27:24.389Z,3.21
2018-12-26T05:28:24.373Z,3.10
2018-12-26T05:29:24.381Z,3.16
2018-12-26T05:30:24.340Z,3.22
2018-12-26T05:31:24.322Z,3.14
2018-12-26T05:32:24.309Z,3.14
2018-12-26T05:33:24.304Z,3.23
2018-12-26T05:34:24.333Z,3.14
2018-12-26T05:35:24.298Z,3.10
2018-12-26T05:36:24.269Z,3.16
2018-12-26T05:37:24.258Z,3.07
2018-12-26T05:38:24.258Z,3.16
2018-12-26T05:39:24.236Z,3.14
2018-12-26T05:40:24.258Z,3.18
2018-12-26T05:41:24.210Z,3.19
2018-12-26T05:42:24.203Z,3.16
2018-12-26T05:43:24.187Z,3.18
2018-12-26T05:44:24.181Z,3.18
2018-12-26T05:45:24.176Z,3.10
2018-12-26T05:46:24.198Z,3.21
2018-12-26T05:47:24.150Z,3.18
2018-12-26T05:48:24.131Z,3.10
2018-12-26T05:49:24.122Z,3.13
2018-12-26T05:50:24.109Z,3.16
2018-12-26T05:51:24.120Z,3.07
2018-12-26T05:52:24.100Z,3.07
2018-12-26T05:53:24.100Z,3.05
2018-12-26T05:54:24.066Z,3.11
2018-12-26T05:55:24.064Z,3.03
2018-12-26T05:56:24.053Z,3.14
2018-12-26T05:57:24.054Z,3.10
2018-12-26T05:58:24.055Z,3.08
2018-12-26T05:59:24.017Z,3.11
2018-12-26T06:00:24.047Z,3.05
2018-12-26T06:01:23.988Z,3.11
2018-12-26T06:02:23.983Z,3.07
2018-12-26T06:03:23.980Z,3.05
2018-12-26T06:04:23.958Z,3.04
2018-12-26T06:05:23.945Z,3.03
2018-12-26T06:06:23.934Z,2.95
2018-12-26T06:07:23.929Z,3.00
2018-12-26T06:08:23.935Z,3.14
2018-12-26T06:09:23.903Z,3.07
2018-12-26T06:10:23.887Z,3.07
2018-12-26T06:11:23.877Z,3.05
2018-12-26T06:12:23.871Z,3.05
2018-12-26T06:13:23.860Z,3.07
2018-12-26T06:14:23.861Z,3.03
2018-12-26T06:15:23.835Z,3.11
2018-12-26T06:16:23.822Z,3.05
2018-12-26T06:17:23.811Z,3.04
2018-12-26T06:18:23.907Z,3.04
2018-12-26T06:19:23.790Z,3.03
2018-12-26T06:20:23.802Z,3.00
2018-12-26T06:21:23.766Z,3.10
2018-12-26T06:22:23.861Z,2.98
2018-12-26T06:23:23.747Z,3.00
2018-12-26T06:24:23.738Z,2.98
2018-12-26T06:25:23.745Z,2.98
2018-12-26T06:26:23.733Z,3.04
2018-12-26T06:27:23.701Z,2.95
2018-12-26T06:28:23.706Z,2.97
2018-12-26T06:29:23.676Z,2.95
2018-12-26T06:30:23.680Z,2.95
2018-12-26T06:31:23.655Z,2.93
2018-12-26T06:32:24.144Z,2.92
2018-12-26T06:33:23.682Z,2.82
2018-12-26T06:34:23.624Z,2.80
2018-12-26T06:35:23.613Z,2.95
2018-12-26T06:36:23.601Z,2.82
2018-12-26T06:37:23.589Z,3.01
2018-12-26T06:38:23.576Z,2.95
2018-12-26T06:39:23.585Z,2.93
2018-12-26T06:40:23.557Z,2.92
2018-12-26T06:41:23.542Z,2.89
2018-12-26T06:42:23.534Z,2.75
2018-12-26T06:43:23.520Z,2.77
2018-12-26T06:44:23.531Z,2.83
2018-12-26T06:45:23.518Z,2.82
2018-12-26T06:46:23.496Z,2.80
2018-12-26T06:47:23.480Z,2.77
2018-12-26T06:48:23.464Z,2.77
2018-12-26T06:49:23.452Z,2.72
2018-12-26T06:50:23.469Z,2.68
2018-12-26T06:51:23.450Z,2.77
2018-12-26T06:52:23.438Z,2.68
2018-12-26T06:53:23.410Z,2.71
2018-12-26T06:54:23.398Z,2.74
2018-12-26T06:55:23.386Z,2.80
2018-12-26T06:56:23.385Z,2.75
2018-12-26T06:57:23.362Z,2.72
2018-12-26T06:58:23.386Z,2.82
2018-12-26T06:59:23.342Z,2.77
2018-12-26T07:00:23.344Z,2.80
2018-12-26T07:01:23.337Z,2.79
2018-12-26T07:02:23.310Z,2.72
2018-12-26T07:03:23.296Z,2.80
2018-12-26T07:04:23.327Z,2.82
2018-12-26T07:05:23.274Z,2.80
2018-12-26T07:06:23.265Z,2.71
2018-12-26T07:07:23.266Z,2.74
2018-12-26T07:08:23.244Z,2.65
2018-12-26T07:09:23.229Z,2.77
2018-12-26T07:10:23.227Z,2.68
2018-12-26T07:11:23.227Z,2.71
2018-12-26T07:12:23.247Z,2.64
2018-12-26T07:13:23.213Z,2.61
2018-12-26T07:14:23.214Z,2.69
2018-12-26T07:15:23.175Z,2.72
2018-12-26T07:16:23.165Z,2.65
2018-12-26T07:17:23.142Z,2.68
2018-12-26T07:18:23.144Z,2.61
2018-12-26T07:19:23.134Z,2.57
2018-12-26T07:20:23.105Z,2.62
2018-12-26T07:21:23.109Z,2.57
2018-12-26T07:22:23.090Z,2.61
2018-12-26T07:23:23.077Z,2.60
2018-12-26T07:24:23.075Z,2.60
2018-12-26T07:25:23.083Z,2.74
2018-12-26T07:26:23.059Z,2.57
2018-12-26T07:27:23.048Z,2.57
2018-12-26T07:28:23.025Z,2.62
2018-12-26T07:29:23.035Z,2.71
2018-12-26T07:30:22.996Z,2.61
2018-12-26T07:31:23.040Z,2.71
2018-12-26T07:32:22.984Z,2.69
2018-12-26T07:33:22.962Z,2.62
2018-12-26T07:34:22.955Z,2.61
2018-12-26T07:35:22.953Z,2.71
2018-12-26T07:36:22.982Z,2.69
2018-12-26T07:37:22.920Z,2.67
2018-12-26T07:38:22.921Z,2.72
2018-12-26T07:39:22.927Z,2.67
2018-12-26T07:40:22.917Z,2.67
2018-12-26T07:41:22.873Z,2.64
2018-12-26T07:42:22.897Z,2.69
2018-12-26T07:43:22.861Z,2.72
2018-12-26T07:44:22.840Z,2.68
2018-12-26T07:45:22.836Z,2.74
2018-12-26T07:46:22.856Z,2.74
2018-12-26T07:47:22.812Z,2.77
2018-12-26T07:48:22.811Z,2.82
2018-12-26T07:49:22.785Z,2.74
2018-12-26T07:50:22.778Z,2.83
2018-12-26T07:51:22.767Z,2.74
2018-12-26T07:52:22.762Z,2.79
2018-12-26T07:53:22.748Z,2.83
2018-12-26T07:54:22.749Z,2.80
2018-12-26T07:55:22.734Z,2.83
2018-12-26T07:56:22.748Z,2.80
2018-12-26T07:57:22.695Z,2.77
2018-12-26T07:58:22.688Z,2.80
2018-12-26T07:59:22.690Z,2.85
2018-12-26T08:00:22.664Z,2.85
2018-12-26T08:01:22.654Z,2.83
2018-12-26T08:02:22.658Z,2.77
2018-12-26T08:03:22.653Z,2.79
2018-12-26T08:04:22.618Z,2.89
2018-12-26T08:05:22.623Z,2.93
2018-12-26T08:06:22.592Z,2.89
2018-12-26T08:07:22.581Z,2.89
2018-12-26T08:08:22.593Z,2.87
2018-12-26T08:09:22.582Z,2.85
2018-12-26T08:10:22.552Z,2.83
2018-12-26T08:11:22.550Z,2.89
2018-12-26T08:12:22.530Z,2.79
2018-12-26T08:13:22.527Z,2.85
2018-12-26T08:14:22.520Z,2.77
2018-12-26T08:15:22.564Z,2.75
2018-12-26T08:16:22.483Z,2.75
2018-12-26T08:17:22.482Z,2.89
2018-12-26T08:18:22.465Z,2.83
2018-12-26T08:19:22.447Z,2.86
2018-12-26T08:20:30.033Z,2.82
2018-12-26T08:21:30.036Z,2.82
2018-12-26T08:22:31.426Z,2.82
2018-12-26T08:23:29.947Z,2.77
2018-12-26T08:24:29.965Z,2.74
2018-12-26T08:25:29.956Z,2.75
2018-12-26T08:26:29.960Z,2.79
2018-12-26T08:27:29.940Z,2.85
2018-12-26T08:28:32.025Z,2.86
2018-12-26T08:29:30.943Z,2.87
2018-12-26T08:30:29.894Z,2.77
2018-12-26T08:31:29.978Z,2.77
2018-12-26T08:32:31.727Z,2.79
2018-12-26T08:33:22.327Z,2.82
2018-12-26T08:34:22.302Z,2.83
2018-12-26T08:35:22.281Z,2.80
2018-12-26T08:36:22.290Z,2.79
2018-12-26T08:37:22.303Z,2.82
2018-12-26T08:38:22.266Z,2.75
2018-12-26T08:39:22.300Z,2.83
2018-12-26T08:40:22.239Z,2.83
2018-12-26T08:41:22.220Z,2.80
2018-12-26T08:42:22.197Z,2.82
2018-12-26T08:43:22.188Z,2.75
2018-12-26T08:44:22.200Z,2.72
2018-12-26T08:45:22.183Z,2.79
2018-12-26T08:46:22.161Z,2.83
2018-12-26T08:47:22.155Z,2.80
2018-12-26T08:48:22.129Z,2.83
2018-12-26T08:49:22.120Z,2.80
2018-12-26T08:50:22.135Z,2.83
2018-12-26T08:51:22.106Z,2.87
2018-12-26T08:52:22.100Z,2.82
2018-12-26T08:53:22.072Z,2.77
2018-12-26T08:54:22.062Z,2.80
2018-12-26T08:55:22.049Z,2.87
2018-12-26T08:56:22.038Z,2.87
2018-12-26T08:57:22.042Z,2.86
2018-12-26T08:58:22.035Z,2.89
2018-12-26T08:59:22.027Z,2.89
2018-12-26T09:00:22.006Z,2.89
2018-12-26T09:01:21.982Z,2.86
2018-12-26T09:02:21.970Z,2.92
2018-12-26T09:03:21.961Z,2.92
2018-12-26T09:04:21.964Z,2.90
2018-12-26T09:05:21.969Z,2.87
2018-12-26T09:06:22.005Z,2.97
2018-12-26T09:07:21.915Z,2.95
2018-12-26T09:08:21.905Z,2.95
2018-12-26T09:09:21.895Z,3.01
2018-12-26T09:10:21.893Z,3.04
2018-12-26T09:11:21.891Z,3.07
2018-12-26T09:12:21.861Z,3.00
2018-12-26T09:13:21.848Z,3.07
2018-12-26T09:14:21.837Z,2.97
2018-12-26T09:15:21.828Z,3.03
2018-12-26T09:16:21.832Z,2.97
2018-12-26T09:17:21.821Z,2.98
2018-12-26T09:18:21.791Z,2.92
2018-12-26T09:19:21.780Z,2.95
2018-12-26T09:20:21.775Z,2.97
2018-12-26T09:21:21.761Z,2.93
2018-12-26T09:22:21.763Z,2.97
2018-12-26T09:23:21.761Z,2.98
2018-12-26T09:24:21.727Z,2.95
2018-12-26T09:25:21.718Z,2.95
2018-12-26T09:26:21.702Z,2.95
2018-12-26T09:27:21.690Z,3.03
2018-12-26T09:28:21.694Z,3.07
2018-12-26T09:29:21.746Z,3.07
2018-12-26T09:30:21.659Z,3.04
2018-12-26T09:31:21.648Z,3.05
2018-12-26T09:32:21.636Z,3.01
2018-12-26T09:33:21.623Z,2.98
2018-12-26T09:34:21.623Z,2.98
2018-12-26T09:35:21.652Z,2.97
2018-12-26T09:36:21.778Z,2.93
2018-12-26T09:37:21.582Z,3.05
2018-12-26T09:38:21.567Z,3.11
2018-12-26T09:39:21.594Z,3.07
2018-12-26T09:40:21.544Z,3.00
2018-12-26T09:41:21.550Z,3.01
2018-12-26T09:42:21.541Z,3.01
2018-12-26T09:43:21.521Z,3.07
2018-12-26T09:44:21.503Z,3.08
2018-12-26T09:45:21.490Z,3.07
2018-12-26T09:46:21.478Z,3.04
2018-12-26T09:47:21.489Z,3.05
2018-12-26T09:48:21.477Z,3.08
2018-12-26T09:49:21.444Z,3.11
2018-12-26T09:50:21.433Z,2.98
2018-12-26T09:51:21.421Z,3.07
2018-12-26T09:52:21.412Z,3.07
2018-12-26T09:53:21.429Z,3.07
2018-12-26T09:54:21.410Z,3.10
2018-12-26T09:55:21.377Z,3.07
2018-12-26T09:56:21.366Z,3.14
2018-12-26T09:57:21.354Z,3.03
2018-12-26T09:58:21.343Z,3.10
2018-12-26T09:59:21.349Z,3.08
2018-12-26T10:00:21.336Z,3.00
2018-12-26T10:01:21.310Z,3.11
2018-12-26T10:02:21.303Z,3.05
2018-12-26T10:03:21.298Z,3.07
2018-12-26T10:04:21.276Z,3.04
2018-12-26T10:05:21.290Z,3.08
2018-12-26T10:06:21.253Z,3.03
2018-12-26T10:07:21.247Z,3.16
2018-12-26T10:08:21.232Z,3.07
2018-12-26T10:09:21.219Z,3.05
2018-12-26T10:10:21.213Z,3.11
2018-12-26T10:11:21.236Z,3.11
2018-12-26T10:12:28.747Z,3.03
2018-12-26T10:13:21.177Z,3.19
2018-12-26T10:14:21.163Z,3.03
2018-12-26T10:15:21.154Z,3.01
2018-12-26T10:16:21.158Z,3.04
2018-12-26T10:17:21.138Z,3.03
2018-12-26T10:18:21.215Z,3.10
2018-12-26T10:19:21.123Z,3.07
2018-12-26T10:20:21.097Z,3.07
2018-12-26T10:21:21.101Z,3.18
2018-12-26T10:22:21.089Z,3.10
2018-12-26T10:23:21.063Z,3.13
2018-12-26T10:24:21.058Z,3.13
2018-12-26T10:25:21.042Z,3.22
2018-12-26T10:26:21.033Z,3.14
2018-12-26T10:27:21.076Z,3.22
2018-12-26T10:28:21.052Z,3.07
2018-12-26T10:29:20.999Z,3.13
2018-12-26T10:30:20.989Z,3.16
2018-12-26T10:31:20.977Z,3.21
2018-12-26T10:32:21.039Z,3.11
2018-12-26T10:33:20.962Z,3.13
2018-12-26T10:34:20.969Z,3.13
2018-12-26T10:35:20.945Z,3.11
2018-12-26T10:36:20.920Z,3.22
2018-12-26T10:37:20.910Z,3.16
2018-12-26T10:38:20.904Z,3.14
2018-12-26T10:39:20.904Z,3.10
2018-12-26T10:40:20.924Z,3.13
2018-12-26T10:41:20.865Z,3.22
2018-12-26T10:42:20.861Z,3.26
2018-12-26T10:43:20.851Z,3.26
2018-12-26T10:44:20.834Z,3.26
2018-12-26T10:45:20.837Z,3.22
2018-12-26T10:46:20.830Z,3.26
2018-12-26T10:47:20.801Z,3.28
2018-12-26T10:48:20.794Z,3.28
2018-12-26T10:49:20.775Z,3.29
2018-12-26T10:50:20.794Z,3.29
2018-12-26T10:51:20.753Z,3.36
2018-12-26T10:52:20.760Z,3.22
2018-12-26T10:53:20.732Z,3.25
2018-12-26T10:54:20.720Z,3.23
2018-12-26T10:55:20.713Z,3.26
2018-12-26T10:56:20.711Z,3.25
2018-12-26T10:57:20.691Z,3.25
2018-12-26T10:58:20.693Z,3.28
2018-12-26T10:59:20.666Z,3.29
2018-12-26T11:00:20.650Z,3.31
2018-12-26T11:01:20.641Z,3.25
2018-12-26T11:02:20.633Z,3.29
2018-12-26T11:03:20.652Z,3.25
2018-12-26T11:04:20.612Z,3.29
2018-12-26T11:05:20.601Z,3.34
2018-12-26T11:06:20.588Z,3.32
2018-12-26T11:07:20.576Z,3.41
2018-12-26T11:08:20.584Z,3.42
2018-12-26T11:09:20.590Z,3.40
2018-12-26T11:10:20.543Z,3.44
2018-12-26T11:11:20.530Z,3.41
2018-12-26T11:12:20.568Z,3.29
2018-12-26T11:13:20.514Z,3.26
2018-12-26T11:14:20.520Z,3.32
2018-12-26T11:15:20.495Z,3.26
2018-12-26T11:16:20.506Z,3.28
2018-12-26T11:17:20.467Z,3.42
2018-12-26T11:18:20.487Z,3.29
2018-12-26T11:19:20.449Z,3.41
2018-12-26T11:20:20.454Z,3.28
2018-12-26T11:21:20.452Z,3.41
2018-12-26T11:22:20.448Z,3.42
2018-12-26T11:23:20.395Z,3.40
2018-12-26T11:24:20.417Z,3.41
2018-12-26T11:25:20.386Z,3.47
2018-12-26T11:26:20.381Z,3.45
2018-12-26T11:27:20.364Z,3.45
2018-12-26T11:28:20.340Z,3.42
2018-12-26T11:29:20.334Z,3.41
2018-12-26T11:30:20.320Z,3.44
2018-12-26T11:31:20.338Z,3.34
2018-12-26T11:32:20.326Z,3.37
2018-12-26T11:33:20.297Z,3.40
2018-12-26T11:34:20.289Z,3.40
2018-12-26T11:35:20.264Z,3.40
2018-12-26T11:36:20.255Z,3.42
2018-12-26T11:37:20.243Z,3.45
2018-12-26T11:38:20.287Z,3.40
2018-12-26T11:39:20.244Z,3.37
2018-12-26T11:40:20.212Z,3.45
2018-12-26T11:41:20.220Z,3.44
2018-12-26T11:42:20.214Z,3.42
2018-12-26T11:43:20.175Z,3.44
2018-12-26T11:44:20.163Z,3.53
2018-12-26T11:45:20.152Z,3.50
2018-12-26T11:46:20.143Z,3.51
2018-12-26T11:47:20.154Z,3.40
2018-12-26T11:48:20.134Z,3.42
2018-12-26T11:49:20.108Z,3.48
2018-12-26T11:50:20.099Z,3.40
2018-12-26T11:51:20.093Z,3.45
2018-12-26T11:52:20.077Z,3.56
2018-12-26T11:53:20.085Z,3.48
2018-12-26T11:54:20.066Z,3.44
2018-12-26T11:55:20.045Z,3.53
2018-12-26T11:56:20.029Z,3.48
2018-12-26T11:57:20.024Z,3.51
2018-12-26T11:58:20.006Z,3.45
2018-12-26T11:59:27.128Z,3.51
2018-12-26T12:00:21.001Z,3.53
2018-12-26T12:01:19.974Z,3.48
2018-12-26T12:02:20.738Z,3.55
2018-12-26T12:03:19.955Z,3.45
2018-12-26T12:04:19.940Z,3.60
2018-12-26T12:05:19.935Z,3.60
2018-12-26T12:06:19.932Z,3.63
2018-12-26T12:07:19.907Z,3.58
2018-12-26T12:08:19.897Z,3.60
2018-12-26T12:09:19.902Z,3.59
2018-12-26T12:10:19.879Z,3.62
2018-12-26T12:11:19.865Z,3.60
2018-12-26T12:12:19.861Z,3.55
2018-12-26T12:13:19.843Z,3.47
2018-12-26T12:14:19.828Z,3.47
2018-12-26T12:15:19.816Z,3.45
2018-12-26T12:16:19.805Z,3.50
2018-12-26T12:17:19.812Z,3.53
2018-12-26T12:18:19.803Z,3.47
2018-12-26T12:19:19.776Z,3.48
2018-12-26T12:20:19.767Z,3.56
2018-12-26T12:21:19.748Z,3.51
2018-12-26T12:22:19.746Z,3.51
2018-12-26T12:23:19.746Z,3.56
2018-12-26T12:24:19.717Z,3.63
2018-12-26T12:25:19.722Z,3.59
2018-12-26T12:26:19.693Z,3.56
2018-12-26T12:27:19.681Z,3.65
2018-12-26T12:28:19.678Z,3.60
2018-12-26T12:29:19.677Z,3.63
2018-12-26T12:30:19.650Z,3.50
2018-12-26T12:31:19.645Z,3.59
2018-12-26T12:32:19.635Z,3.62
2018-12-26T12:33:19.627Z,3.63
2018-12-26T12:34:19.601Z,3.60
2018-12-26T12:35:19.617Z,3.58
2018-12-26T12:36:19.628Z,3.55
2018-12-26T12:37:19.578Z,3.73
2018-12-26T12:38:19.561Z,3.74
2018-12-26T12:39:19.561Z,3.66
2018-12-26T12:40:19.557Z,3.76
2018-12-26T12:41:19.544Z,3.70
2018-12-26T12:42:19.513Z,3.68
2018-12-26T12:43:19.508Z,3.73
2018-12-26T12:44:21.596Z,3.65
2018-12-26T12:45:19.496Z,3.76
2018-12-26T12:46:19.490Z,3.70
2018-12-26T12:47:19.489Z,3.66
2018-12-26T12:48:19.450Z,3.70
2018-12-26T12:49:19.439Z,3.76
2018-12-26T12:50:19.450Z,3.69
2018-12-26T12:51:19.416Z,3.70
2018-12-26T12:52:19.424Z,3.78
2018-12-26T12:53:19.398Z,3.74
2018-12-26T12:54:19.379Z,3.70
2018-12-26T12:55:19.368Z,3.81
2018-12-26T12:56:19.363Z,3.77
2018-12-26T12:57:19.345Z,3.70
2018-12-26T12:58:19.361Z,3.66
2018-12-26T12:59:19.331Z,3.68
2018-12-26T13:00:19.314Z,3.69
2018-12-26T13:01:19.304Z,3.69
2018-12-26T13:02:19.305Z,3.84
2018-12-26T13:03:19.280Z,3.70
2018-12-26T13:04:19.289Z,3.66
2018-12-26T13:05:19.260Z,3.68
2018-12-26T13:06:19.250Z,3.74
2018-12-26T13:07:19.247Z,3.69
2018-12-26T13:08:19.236Z,3.70
2018-12-26T13:09:19.213Z,3.78
2018-12-26T13:10:19.224Z,3.78
2018-12-26T13:11:19.194Z,3.80
2018-12-26T13:12:19.179Z,3.77
2018-12-26T13:13:19.169Z,3.83
2018-12-26T13:14:19.166Z,3.81
2018-12-26T13:15:19.154Z,3.83
2018-12-26T13:16:19.165Z,3.91
2018-12-26T13:17:19.135Z,3.86
2018-12-26T13:18:19.121Z,3.92
2018-12-26T13:19:19.114Z,3.88